Terminal Aerodrome Forecast
Issued by NWS Amarillo, TX

Home | Current Version | Previous Version | Text Only | Print | Product List | Glossary On
Versions: 1 2 3 4 5 6 7 8 9 10 11 12
184
FTUS44 KAMA 191728
TAFDHT
TAF
KDHT 191728Z 1918/2018 20011G18KT P6SM SCT060
     FM200100 22010KT P6SM SCT250
     FM201500 21012G19KT P6SM BKN250=

USA.gov is the U.S. government's official web portal to all federal, state and local government web resources and services.